< < Back
Terminal Aerodrome Forecast


Current Version              Previous Versions:   1  2  3  4  5  6  7  8  9  

Terminal Aerodrome Forecast

499
FTUS42 KTAE 280500
TAFVLD
TAF
KVLD 280528Z 2806/2906 00000KT P6SM SCT250
     FM281400 26007KT P6SM SCT030
     FM281800 24009KT P6SM VCTS BKN050CB
     FM290200 21003KT P6SM SCT050 BKN100=



Latest METAR

409
SAUS70 KWBC 290500 RRD
MTRVLD
METAR KVLD 290453Z AUTO 00000KT 10SM CLR 26/22 A2993 RMK AO2 SLP138
T02560217 403830256


USA.gov is the U.S. government's official web portal to all federal, state and local government web resources and services.